createdAt,value
2023-02-03T00:00:00.502Z,1019
2023-02-03T00:04:00.505Z,1019
2023-02-03T00:08:00.485Z,1019
2023-02-03T00:12:00.505Z,1019
2023-02-03T00:16:00.519Z,1019
2023-02-03T00:20:00.779Z,1018
2023-02-03T00:24:00.498Z,1018
2023-02-03T00:28:00.533Z,1018
2023-02-03T00:32:00.630Z,1018
2023-02-03T00:36:00.494Z,1018
2023-02-03T00:40:00.499Z,1018
2023-02-03T00:44:00.490Z,1018
2023-02-03T00:48:00.537Z,1018
2023-02-03T00:52:00.499Z,1018
2023-02-03T00:56:00.502Z,1017
2023-02-03T01:00:00.481Z,1017
2023-02-03T01:04:00.502Z,1018
2023-02-03T01:08:00.520Z,1018
2023-02-03T01:12:00.479Z,1017
2023-02-03T01:16:00.510Z,1017
2023-02-03T01:20:00.514Z,1017
2023-02-03T01:24:00.501Z,1017
2023-02-03T01:28:00.577Z,1017
2023-02-03T01:32:00.700Z,1017
2023-02-03T01:36:00.511Z,1017
2023-02-03T01:40:00.479Z,1017
2023-02-03T01:44:00.488Z,1017
2023-02-03T01:48:00.506Z,1017
2023-02-03T01:52:00.527Z,1017
2023-02-03T01:56:00.505Z,1017
2023-02-03T02:00:00.527Z,1016
2023-02-03T02:04:00.514Z,1016
2023-02-03T02:08:00.534Z,1016
2023-02-03T02:12:00.509Z,1016
2023-02-03T02:16:00.691Z,1016
2023-02-03T02:20:00.492Z,1016
2023-02-03T02:24:00.493Z,1016
2023-02-03T02:28:00.744Z,1016
2023-02-03T02:32:00.659Z,1016
2023-02-03T02:36:00.505Z,1016
2023-02-03T02:40:00.557Z,1015
2023-02-03T02:44:00.515Z,1015
2023-02-03T02:48:00.501Z,1015
2023-02-03T02:52:00.490Z,1015
2023-02-03T02:56:00.508Z,1015
2023-02-03T03:00:00.494Z,1015
2023-02-03T03:04:00.494Z,1015
2023-02-03T03:08:00.505Z,1015
2023-02-03T03:12:00.535Z,1015
2023-02-03T03:16:00.654Z,1014
2023-02-03T03:20:00.475Z,1014
2023-02-03T03:24:00.500Z,1014
2023-02-03T03:28:00.567Z,1014
2023-02-03T03:32:00.640Z,1014
2023-02-03T03:36:00.505Z,1014
2023-02-03T03:40:00.485Z,1014
2023-02-03T03:44:00.512Z,1014
2023-02-03T03:48:00.486Z,1014
2023-02-03T03:52:00.776Z,1014
2023-02-03T03:56:00.481Z,1013
2023-02-03T04:00:00.492Z,1013
2023-02-03T04:04:00.495Z,1013
2023-02-03T04:08:00.500Z,1013
2023-02-03T04:12:00.512Z,1013
2023-02-03T04:16:00.528Z,1013
2023-02-03T04:20:00.491Z,1013
2023-02-03T04:24:00.519Z,1013
2023-02-03T04:28:00.613Z,1013
2023-02-03T04:32:00.663Z,1013
2023-02-03T04:36:00.508Z,1013
2023-02-03T04:40:00.516Z,1012
2023-02-03T04:44:00.498Z,1012
2023-02-03T04:48:00.511Z,1012
2023-02-03T04:52:00.518Z,1012
2023-02-03T04:56:00.503Z,1012
2023-02-03T05:00:00.494Z,1012
2023-02-03T05:04:00.502Z,1012
2023-02-03T05:08:00.500Z,1012
2023-02-03T05:12:00.496Z,1012
2023-02-03T05:16:00.515Z,1012
2023-02-03T05:20:00.519Z,1012
2023-02-03T05:24:00.506Z,1012
2023-02-03T05:28:00.597Z,1012
2023-02-03T05:32:00.707Z,1012
2023-02-03T05:36:00.501Z,1012
2023-02-03T05:40:00.476Z,1012
2023-02-03T05:44:00.544Z,1012
2023-02-03T05:48:00.491Z,1011
2023-02-03T05:52:00.560Z,1011
2023-02-03T05:56:00.519Z,1011
2023-02-03T06:00:00.539Z,1011
2023-02-03T06:04:00.688Z,1011
2023-02-03T06:08:00.496Z,1011
2023-02-03T06:12:00.502Z,1011
2023-02-03T06:16:00.500Z,1011
2023-02-03T06:20:00.485Z,1011
2023-02-03T06:24:00.496Z,1011
2023-02-03T06:28:00.660Z,1011
2023-02-03T06:32:00.744Z,1010
2023-02-03T06:36:00.507Z,1011
2023-02-03T06:40:00.481Z,1011
2023-02-03T06:44:00.499Z,1011
2023-02-03T06:48:00.497Z,1010
2023-02-03T06:52:00.492Z,1010
2023-02-03T06:56:00.506Z,1010
2023-02-03T07:00:00.477Z,1010
2023-02-03T07:04:00.490Z,1010
2023-02-03T07:08:00.517Z,1010
2023-02-03T07:12:00.499Z,1010
2023-02-03T07:16:00.606Z,1010
2023-02-03T07:20:00.511Z,1010
2023-02-03T07:24:00.512Z,1010
2023-02-03T07:28:00.726Z,1010
2023-02-03T07:32:00.673Z,1010
2023-02-03T07:36:00.521Z,1010
2023-02-03T07:40:00.514Z,1009
2023-02-03T07:44:00.513Z,1009
2023-02-03T07:48:00.481Z,1009
2023-02-03T07:52:00.500Z,1009
2023-02-03T07:56:00.496Z,1009
2023-02-03T08:00:00.487Z,1009
2023-02-03T08:04:00.531Z,1009
2023-02-03T08:08:00.498Z,1009
2023-02-03T08:12:00.505Z,1009
2023-02-03T08:16:00.535Z,1009
2023-02-03T08:20:00.507Z,1009
2023-02-03T08:24:00.481Z,1008
2023-02-03T08:28:00.581Z,1008
2023-02-03T08:32:00.568Z,1008
2023-02-03T08:36:00.486Z,1008
2023-02-03T08:40:00.494Z,1008
2023-02-03T08:44:00.495Z,1008
2023-02-03T08:48:00.524Z,1008
2023-02-03T08:52:00.511Z,1008
2023-02-03T08:56:00.489Z,1008
2023-02-03T09:00:00.541Z,1008
2023-02-03T09:04:00.487Z,1008
2023-02-03T09:08:00.517Z,1008
2023-02-03T09:12:00.494Z,1008
2023-02-03T09:16:00.522Z,1008
2023-02-03T09:20:00.566Z,1008
2023-02-03T09:24:00.531Z,1008
2023-02-03T09:28:00.536Z,1008
2023-02-03T09:32:00.558Z,1007
2023-02-03T09:36:00.525Z,1007
2023-02-03T09:40:00.476Z,1007
2023-02-03T09:44:00.527Z,1007
2023-02-03T09:48:00.528Z,1007
2023-02-03T09:52:00.476Z,1007
2023-02-03T09:56:00.537Z,1007
2023-02-03T10:00:00.517Z,1007
2023-02-03T10:04:00.516Z,1007
2023-02-03T10:08:00.508Z,1007
2023-02-03T10:12:00.506Z,1007
2023-02-03T10:16:00.513Z,1006
2023-02-03T10:20:00.522Z,1006
2023-02-03T10:24:00.499Z,1006
2023-02-03T10:28:00.618Z,1006
2023-02-03T10:32:00.751Z,1006
2023-02-03T10:36:00.496Z,1006
2023-02-03T10:40:00.540Z,1006
2023-02-03T10:44:00.511Z,1006
2023-02-03T10:48:00.498Z,1006
2023-02-03T10:52:00.496Z,1006
2023-02-03T10:56:00.485Z,1006
2023-02-03T11:00:00.527Z,1006
2023-02-03T11:04:00.497Z,1007
2023-02-03T11:08:00.509Z,1007
2023-02-03T11:12:00.518Z,1007
2023-02-03T11:16:00.593Z,1007
2023-02-03T11:20:00.508Z,1007
2023-02-03T11:24:00.507Z,1007
2023-02-03T11:28:00.551Z,1007
2023-02-03T11:32:00.814Z,1007
2023-02-03T11:36:00.497Z,1007
2023-02-03T11:40:00.517Z,1007
2023-02-03T11:44:00.492Z,1007
2023-02-03T11:48:00.488Z,1007
2023-02-03T11:52:00.486Z,1007
2023-02-03T11:56:00.517Z,1007
2023-02-03T12:00:00.486Z,1007
2023-02-03T12:04:00.498Z,1007
2023-02-03T12:08:00.512Z,1007
2023-02-03T12:12:00.479Z,1007
2023-02-03T12:16:00.570Z,1007
2023-02-03T12:20:00.505Z,1007
2023-02-03T12:24:00.480Z,1007
2023-02-03T12:28:00.589Z,1007
2023-02-03T12:32:00.647Z,1007
2023-02-03T12:36:00.503Z,1007
2023-02-03T12:40:00.511Z,1007
2023-02-03T12:44:00.509Z,1007
2023-02-03T12:48:00.496Z,1007
2023-02-03T12:52:00.529Z,1007
2023-02-03T12:56:00.490Z,1007
2023-02-03T13:00:00.575Z,1007
2023-02-03T13:04:00.559Z,1007
2023-02-03T13:08:00.511Z,1007
2023-02-03T13:12:00.525Z,1007
2023-02-03T13:16:00.529Z,1008
2023-02-03T13:20:00.569Z,1008
2023-02-03T13:24:00.535Z,1008
2023-02-03T13:28:00.659Z,1008
2023-02-03T13:32:00.546Z,1008
2023-02-03T13:36:00.513Z,1008
2023-02-03T13:40:00.485Z,1008
2023-02-03T13:44:00.519Z,1008
2023-02-03T13:48:00.498Z,1008
2023-02-03T13:52:00.487Z,1008
2023-02-03T13:56:00.536Z,1008
2023-02-03T14:00:00.545Z,1008
2023-02-03T14:04:00.755Z,1008
2023-02-03T14:08:00.499Z,1008
2023-02-03T14:12:00.513Z,1008
2023-02-03T14:16:00.488Z,1008
2023-02-03T14:20:00.505Z,1008
2023-02-03T14:24:00.552Z,1008
2023-02-03T14:28:00.550Z,1008
2023-02-03T14:32:00.612Z,1008
2023-02-03T14:36:00.519Z,1008
2023-02-03T14:40:00.538Z,1008
2023-02-03T14:44:00.622Z,1008
2023-02-03T14:48:00.493Z,1008
2023-02-03T14:52:00.508Z,1008
2023-02-03T14:56:00.492Z,1008
2023-02-03T15:00:00.536Z,1008
2023-02-03T15:04:00.514Z,1008
2023-02-03T15:08:00.528Z,1008
2023-02-03T15:12:00.501Z,1008
2023-02-03T15:16:00.672Z,1008
2023-02-03T15:20:00.496Z,1008
2023-02-03T15:24:00.495Z,1008
2023-02-03T15:28:00.593Z,1009
2023-02-03T15:32:00.505Z,1009
2023-02-03T15:36:00.506Z,1009
2023-02-03T15:40:00.532Z,1009
2023-02-03T15:44:00.502Z,1009
2023-02-03T15:48:00.487Z,1009
2023-02-03T15:52:00.489Z,1009
2023-02-03T15:56:00.463Z,1009
2023-02-03T16:00:00.575Z,1009
2023-02-03T16:04:00.497Z,1009
2023-02-03T16:08:00.519Z,1009
2023-02-03T16:12:00.521Z,1009
2023-02-03T16:16:00.664Z,1009
2023-02-03T16:20:00.485Z,1009
2023-02-03T16:24:00.509Z,1009
2023-02-03T16:28:00.596Z,1009
2023-02-03T16:32:00.593Z,1009
2023-02-03T16:36:00.501Z,1010
2023-02-03T16:40:00.530Z,1009
2023-02-03T16:44:00.483Z,1009
2023-02-03T16:48:00.509Z,1009
2023-02-03T16:52:00.552Z,1010
2023-02-03T16:56:00.511Z,1010
2023-02-03T17:00:00.483Z,1010
2023-02-03T17:04:00.507Z,1010
2023-02-03T17:08:00.519Z,1010
2023-02-03T17:12:00.534Z,1009
2023-02-03T17:16:00.747Z,1009
2023-02-03T17:20:00.619Z,1010
2023-02-03T17:24:00.505Z,1010
2023-02-03T17:28:00.591Z,1010
2023-02-03T17:32:00.573Z,1010
2023-02-03T17:36:00.496Z,1010
2023-02-03T17:56:00.498Z,1010
2023-02-03T18:00:00.504Z,1010
2023-02-03T18:04:00.458Z,1010
2023-02-03T18:08:05.902Z,1010
2023-02-03T18:12:00.465Z,1010
2023-02-03T18:16:00.500Z,1010
2023-02-03T18:20:00.605Z,1010
2023-02-03T18:24:00.469Z,1010
2023-02-03T18:28:00.574Z,1010
2023-02-03T18:32:00.461Z,1010
2023-02-03T18:36:00.453Z,1010
2023-02-03T18:40:00.433Z,1010
2023-02-03T18:44:00.479Z,1010
2023-02-03T18:48:00.484Z,1010
2023-02-03T18:52:00.494Z,1010
2023-02-03T18:56:00.470Z,1010
2023-02-03T19:00:00.493Z,1010
2023-02-03T19:04:00.496Z,1010
2023-02-03T19:08:00.453Z,1010
2023-02-03T19:12:00.482Z,1010
2023-02-03T19:16:00.551Z,1010
2023-02-03T19:20:00.505Z,1010
2023-02-03T19:24:00.498Z,1010
2023-02-03T19:28:00.535Z,1010
2023-02-03T19:32:00.704Z,1010
2023-02-03T19:36:00.473Z,1011
2023-02-03T19:40:00.591Z,1011
2023-02-03T19:44:00.483Z,1011
2023-02-03T19:48:00.488Z,1011
2023-02-03T19:52:00.522Z,1011
2023-02-03T19:56:00.501Z,1011
2023-02-03T20:00:00.516Z,1011
2023-02-03T20:04:00.516Z,1011
2023-02-03T20:08:00.493Z,1011
2023-02-03T20:12:00.513Z,1011
2023-02-03T20:16:00.581Z,1011
2023-02-03T20:20:00.515Z,1011
2023-02-03T20:24:00.506Z,1011
2023-02-03T20:28:00.513Z,1011
2023-02-03T20:32:00.721Z,1011
2023-02-03T20:36:00.508Z,1011
2023-02-03T20:40:00.482Z,1011
2023-02-03T20:44:00.488Z,1011
2023-02-03T20:48:00.502Z,1011
2023-02-03T20:52:00.484Z,1011
2023-02-03T20:56:00.489Z,1011
2023-02-03T21:00:00.489Z,1011
2023-02-03T21:04:00.497Z,1012
2023-02-03T21:08:00.495Z,1012
2023-02-03T21:12:00.550Z,1012
2023-02-03T21:16:00.589Z,1012
2023-02-03T21:20:00.514Z,1012
2023-02-03T21:24:00.509Z,1012
2023-02-03T21:28:00.582Z,1012
2023-02-03T21:32:00.643Z,1013
2023-02-03T21:36:00.517Z,1013
2023-02-03T21:40:00.511Z,1013
2023-02-03T21:44:00.502Z,1013
2023-02-03T21:48:00.493Z,1013
2023-02-03T21:52:00.504Z,1014
2023-02-03T21:56:00.463Z,1014
2023-02-03T22:00:00.508Z,1014
2023-02-03T22:04:00.521Z,1014
2023-02-03T22:08:00.532Z,1014
2023-02-03T22:12:01.357Z,1015
2023-02-03T22:16:00.498Z,1015
2023-02-03T22:20:00.505Z,1015
2023-02-03T22:24:00.492Z,1015
2023-02-03T22:28:00.589Z,1015
2023-02-03T22:32:00.727Z,1015
2023-02-03T22:36:00.499Z,1015
2023-02-03T22:40:00.513Z,1015
2023-02-03T22:44:00.472Z,1015
2023-02-03T22:48:00.750Z,1016
2023-02-03T22:52:00.481Z,1016
2023-02-03T22:56:00.506Z,1016
2023-02-03T23:00:00.457Z,1016
2023-02-03T23:04:00.483Z,1016
2023-02-03T23:08:00.497Z,1016
2023-02-03T23:12:00.494Z,1017
2023-02-03T23:16:00.543Z,1017
2023-02-03T23:20:00.535Z,1017
2023-02-03T23:24:00.501Z,1017
2023-02-03T23:28:00.580Z,1017
2023-02-03T23:32:00.562Z,1017
2023-02-03T23:36:00.501Z,1018
2023-02-03T23:40:00.527Z,1018
2023-02-03T23:44:00.464Z,1018
2023-02-03T23:48:00.513Z,1018
2023-02-03T23:52:00.470Z,1018
2023-02-03T23:56:00.506Z,1018
